ADDS METAR Data INFO
IDs: Format: Raw Decoded Include TAF

Data at: 0226 UTC 14 Dec 2017

KEVB 140150Z 25003KT 10SM SKC 07/03 A3006
KEVB 140050Z 00000KT 10SM SKC 07/05 A3007
KEVB 132350Z 00000KT 10SM SKC 08/04 A3006
KEVB 132250Z 00000KT 10SM SKC 12/00 A3005
KEVB 132150Z 27007KT 10SM SKC 15/M01 A3005
KEVB 132050Z 30010KT 10SM SKC 16/M03 A3005
KEVB 131947Z 27010KT 10SM SKC 17/M04 A3005
KEVB 131847Z 30005KT 10SM SKC 16/M04 A3005
KEVB 131747Z 30005KT 10SM SKC 15/M04 A3007
KEVB 131647Z 33005KT 10SM SKC 14/M03 A3011
KEVB 131547Z 32007KT 10SM SKC 13/M02 A3013
KEVB 131447Z 32010KT 10SM SKC 10/00 A3014
KEVB 131347Z 31007KT 10SM SKC 08/01 A3012
KEVB 131247Z 00000KT 10SM SKC 05/02 A3011
KEVB 131147Z 30005KT 10SM SKC 05/02 A3009 RMK FIRST
KEVB 130250Z 28008KT 10SM SKC 13/04 A2998 RMK LAST
KEVB 130150Z 28008KT 10SM SKC 15/05 A2996
KEVB 130050Z 28008KT 10SM SKC 15/06 A2993
KEVB 122350Z 28013KT 10SM SKC 18/09 A2991
KEVB 122247Z 25011G21KT 10SM SKC 19/08 A2987
KEVB 122150Z 25021G34KT 10SM FEW035 21/08 A2986
KEVB 122047Z 25021G34KT 10SM FEW035 22/7 A2986
KEVB 121950Z 25025G35KT 10SM SCT046 22/7 A2985
KEVB 121847Z 25016G26KT 10SM SCT046 22/11 A2987
KEVB 121747Z 24019G26KT 10SM SCT040 21/11 A2992
KEVB 121647Z 25012G17KT 10SM FEW025 20/12 A2997
KEVB 121547Z 23010KT 10SM SKC 17/11 A3002
KEVB 121447Z 23009KT 10SM SKC 14/10 A3004